Time;durP1;ratioP1;P1;durP2;ratioP2;P2;SDS_P1;SDS_P2;PMS_P1;PMS_P2;Temp;Humidity;BMP_temperature;BMP_pressure;BME280_temperature;BME280_humidity;BME280_pressure;Samples;Min_cycle;Max_cycle;Signal;HPM_P1;HPM_P2
2021/12/13 00:02:25;;;;;;;;;;;11.00;99.90;;;;;;4983084;28;20372;-76
2021/12/13 00:05:10;;;;;;;;;;;11.00;99.90;;;;;;4975208;28;19956;-77
2021/12/13 00:07:37;;;;;;;;;;;11.00;99.90;;;;;;4975787;28;19910;-78
2021/12/13 00:10:07;;;;;;;;;;;11.00;99.90;;;;;;4976256;28;19985;-77
2021/12/13 00:12:36;;;;;;;;;;;11.00;99.90;;;;;;4975708;28;19929;-77
2021/12/13 00:15:04;;;;;;;;;;;10.90;99.90;;;;;;4974909;28;20281;-77
2021/12/13 00:17:36;;;;;;;;;;;11.20;99.90;;;;;;4974558;28;20271;-77
2021/12/13 00:20:14;;;;;;;;;;;11.00;99.90;;;;;;4975383;28;19929;-77
2021/12/13 00:22:42;;;;;;;;;;;11.10;99.90;;;;;;4975474;28;19929;-77
2021/12/13 00:25:09;;;;;;;;;;;11.10;99.90;;;;;;4975393;28;19945;-76
2021/12/13 00:27:39;;;;;;;;;;;11.10;99.90;;;;;;4975253;28;19980;-77
2021/12/13 00:30:07;;;;;;;;;;;11.00;99.90;;;;;;4975207;28;20427;-77
2021/12/13 00:32:33;;;;;;;;;;;11.00;99.90;;;;;;4975559;28;19917;-76
2021/12/13 00:35:00;;;;;;;;;;;11.10;99.90;;;;;;4975315;28;19914;-77
2021/12/13 00:37:37;;;;;;;;;;;11.10;99.90;;;;;;4975316;28;20311;-77
2021/12/13 00:40:23;;;;;;;;;;;11.10;99.90;;;;;;4975248;28;20301;-77
2021/12/13 00:42:53;;;;;;;;;;;11.10;99.90;;;;;;4975035;28;19957;-77
2021/12/13 00:45:21;;;;;;;;;;;11.20;99.90;;;;;;4974853;28;19910;-76
2021/12/13 00:47:47;;;;;;;;;;;11.20;99.90;;;;;;4974524;28;19906;-77
2021/12/13 00:50:16;;;;;;;;;;;11.20;99.90;;;;;;4973755;28;20263;-78
2021/12/13 00:52:43;;;;;;;;;;;11.20;99.90;;;;;;4975058;28;20443;-76
2021/12/13 00:55:10;;;;;;;;;;;11.20;99.90;;;;;;4974608;28;19914;-77
2021/12/13 00:57:38;;;;;;;;;;;11.20;99.90;;;;;;4989983;28;20161;-78
2021/12/13 01:00:09;;;;;;;;;;;11.20;99.90;;;;;;4973579;28;19906;-77
2021/12/13 01:02:39;;;;;;;;;;;11.20;99.90;;;;;;4974993;28;20299;-78
2021/12/13 01:05:05;;;;;;;;;;;11.20;99.90;;;;;;4974370;28;19921;-78
2021/12/13 01:07:33;;;;;;;;;;;11.20;99.90;;;;;;4974424;28;19910;-78
2021/12/13 01:10:08;;;;;;;;;;;11.20;99.90;;;;;;4989912;28;20382;-78
2021/12/13 01:12:33;;;;;;;;;;;11.20;99.90;;;;;;4974776;28;19910;-79
2021/12/13 01:15:03;;;;;;;;;;;11.20;99.90;;;;;;4974682;28;20310;-77
2021/12/13 01:17:49;;;;;;;;;;;11.20;99.90;;;;;;4974202;28;19968;-78
2021/12/13 01:20:26;;;;;;;;;;;11.20;99.90;;;;;;4974269;28;20388;-76
2021/12/13 01:23:00;;;;;;;;;;;11.20;99.90;;;;;;4974552;28;19910;-77
2021/12/13 01:25:46;;;;;;;;;;;11.20;99.90;;;;;;4974383;28;20272;-79
2021/12/13 01:28:20;;;;;;;;;;;11.20;99.90;;;;;;4974079;28;19917;-78
2021/12/13 01:30:49;;;;;;;;;;;11.30;99.90;;;;;;4974242;28;19968;-76
2021/12/13 01:33:16;;;;;;;;;;;11.30;99.90;;;;;;4974243;28;19916;-77
2021/12/13 01:35:44;;;;;;;;;;;11.30;99.90;;;;;;4974512;28;19906;-77
2021/12/13 01:38:12;;;;;;;;;;;11.30;99.90;;;;;;4974126;28;19925;-77
2021/12/13 01:40:40;;;;;;;;;;;11.30;99.90;;;;;;4974329;28;20009;-78
2021/12/13 01:43:19;;;;;;;;;;;11.30;99.90;;;;;;4972899;28;19918;-79
2021/12/13 01:45:46;;;;;;;;;;;11.30;99.90;;;;;;4974162;28;19914;-76
2021/12/13 01:48:26;;;;;;;;;;;11.30;99.90;;;;;;4974024;28;19906;-77
2021/12/13 01:50:53;;;;;;;;;;;11.30;99.90;;;;;;4973963;28;20407;-79
2021/12/13 01:53:31;;;;;;;;;;;11.30;99.90;;;;;;4973515;28;19957;-77
2021/12/13 01:55:58;;;;;;;;;;;11.30;99.90;;;;;;4972742;28;19917;-78
2021/12/13 02:01:11;;;;;;;;;;;11.30;99.90;;;;;;4973467;28;19965;-79
2021/12/13 02:03:49;;;;;;;;;;;11.30;99.90;;;;;;4972462;28;19914;-78
2021/12/13 02:06:28;;;;;;;;;;;11.40;99.90;;;;;;4972352;28;20320;-77
2021/12/13 02:08:55;;;;;;;;;;;11.40;99.90;;;;;;4972690;28;19918;-77
2021/12/13 02:11:22;;;;;;;;;;;11.40;99.90;;;;;;4972306;28;19921;-77
2021/12/13 02:14:04;;;;;;;;;;;11.40;99.90;;;;;;4972800;28;19969;-77
2021/12/13 02:19:20;;;;;;;;;;;11.40;99.90;;;;;;4972752;28;20375;-76
2021/12/13 02:21:49;;;;;;;;;;;11.50;99.90;;;;;;4987563;28;20260;-77
2021/12/13 02:24:14;;;;;;;;;;;11.50;99.90;;;;;;4972421;28;20004;-78
2021/12/13 02:26:42;;;;;;;;;;;11.40;99.90;;;;;;4972620;28;20053;-77
2021/12/13 02:29:12;;;;;;;;;;;11.50;99.90;;;;;;4972175;28;19910;-77
2021/12/13 02:31:38;;;;;;;;;;;11.40;99.90;;;;;;4972144;28;19925;-77
2021/12/13 02:34:06;;;;;;;;;;;11.40;99.90;;;;;;4972403;28;20233;-77
2021/12/13 02:36:52;;;;;;;;;;;11.40;99.90;;;;;;5015059;28;19910;-76
2021/12/13 02:39:25;;;;;;;;;;;11.40;99.90;;;;;;5009801;28;19905;-77
2021/12/13 02:41:52;;;;;;;;;;;11.40;99.90;;;;;;5011512;28;19901;-77
2021/12/13 02:44:17;;;;;;;;;;;11.50;99.90;;;;;;5011091;28;19910;-78
2021/12/13 02:46:43;;;;;;;;;;;11.50;99.90;;;;;;5010455;28;20392;-77
2021/12/13 02:49:11;;;;;;;;;;;11.50;99.90;;;;;;5010297;28;19921;-78
2021/12/13 02:51:38;;;;;;;;;;;11.50;99.90;;;;;;5010727;28;19925;-77
2021/12/13 02:54:16;;;;;;;;;;;11.60;99.90;;;;;;5011116;28;19910;-77
2021/12/13 02:56:47;;;;;;;;;;;11.50;99.90;;;;;;5011295;28;20020;-77
2021/12/13 02:59:14;;;;;;;;;;;11.60;99.90;;;;;;5009560;28;19909;-78
2021/12/13 03:01:43;;;;;;;;;;;11.60;99.90;;;;;;4974015;28;1060495;-77
2021/12/13 03:04:11;;;;;;;;;;;11.50;99.90;;;;;;5011615;28;20301;-77
2021/12/13 03:06:40;;;;;;;;;;;11.50;99.90;;;;;;5011502;28;19913;-77
2021/12/13 03:09:08;;;;;;;;;;;11.40;99.90;;;;;;5011711;28;19932;-77
2021/12/13 03:11:34;;;;;;;;;;;11.50;99.90;;;;;;5010827;28;20011;-77
2021/12/13 03:14:03;;;;;;;;;;;11.50;99.90;;;;;;5011721;28;20066;-76
2021/12/13 03:16:31;;;;;;;;;;;11.50;99.90;;;;;;5011351;28;20355;-78
2021/12/13 03:18:59;;;;;;;;;;;11.50;99.90;;;;;;5010654;28;19996;-77
2021/12/13 03:21:45;;;;;;;;;;;11.60;99.90;;;;;;5011265;28;19949;-77
2021/12/13 03:24:13;;;;;;;;;;;11.50;99.90;;;;;;5011235;28;19995;-77
2021/12/13 03:27:14;;;;;;;;;;;11.50;99.90;;;;;;5010524;28;19917;-77
2021/12/13 03:29:52;;;;;;;;;;;11.50;99.90;;;;;;5028259;28;19978;-77
2021/12/13 03:32:19;;;;;;;;;;;11.50;99.90;;;;;;5013089;28;20435;-77
2021/12/13 03:34:54;;;;;;;;;;;11.50;99.90;;;;;;5011009;28;19937;-77
2021/12/13 03:37:22;;;;;;;;;;;11.50;99.90;;;;;;5010042;28;19918;-77
2021/12/13 03:39:52;;;;;;;;;;;11.50;99.90;;;;;;5011379;28;19921;-77
2021/12/13 03:42:29;;;;;;;;;;;11.50;99.90;;;;;;5011298;28;20579;-77
2021/12/13 03:44:57;;;;;;;;;;;11.50;99.90;;;;;;5011630;28;19905;-77
2021/12/13 03:47:37;;;;;;;;;;;11.60;99.90;;;;;;5010944;28;20000;-77
2021/12/13 03:50:08;;;;;;;;;;;11.60;99.90;;;;;;5011102;28;19917;-76
2021/12/13 03:52:33;;;;;;;;;;;11.60;99.90;;;;;;5010965;28;19936;-77
2021/12/13 03:55:00;;;;;;;;;;;11.60;99.90;;;;;;5011120;28;20567;-77
2021/12/13 03:57:27;;;;;;;;;;;11.60;99.90;;;;;;5009841;28;19909;-77
2021/12/13 03:59:53;;;;;;;;;;;11.60;99.90;;;;;;5011162;28;20232;-77
2021/12/13 04:02:22;;;;;;;;;;;11.50;99.90;;;;;;5010632;28;19932;-78
2021/12/13 04:04:50;;;;;;;;;;;11.60;99.90;;;;;;5010839;28;19945;-77
2021/12/13 04:07:18;;;;;;;;;;;11.60;99.90;;;;;;5011027;28;19909;-77
2021/12/13 04:09:44;;;;;;;;;;;11.60;99.90;;;;;;5010616;28;20225;-76
2021/12/13 04:12:11;;;;;;;;;;;11.70;99.90;;;;;;5011037;28;19952;-76
2021/12/13 04:14:43;;;;;;;;;;;11.60;99.90;;;;;;5011125;28;20000;-77
2021/12/13 04:17:23;;;;;;;;;;;11.50;99.90;;;;;;5011106;28;19988;-76
2021/12/13 04:19:54;;;;;;;;;;;11.50;99.90;;;;;;5010672;28;20353;-76
2021/12/13 04:22:22;;;;;;;;;;;11.60;99.90;;;;;;5010941;28;20001;-77
2021/12/13 04:24:56;;;;;;;;;;;11.60;99.90;;;;;;5009457;28;19979;-76
2021/12/13 04:27:27;;;;;;;;;;;11.60;99.90;;;;;;5010844;28;20240;-77
2021/12/13 04:29:54;;;;;;;;;;;11.70;99.90;;;;;;5011105;28;20020;-77
2021/12/13 04:32:20;;;;;;;;;;;11.70;99.90;;;;;;5014356;28;19928;-77
2021/12/13 04:34:46;;;;;;;;;;;11.70;99.90;;;;;;5013916;28;19996;-77
2021/12/13 04:37:16;;;;;;;;;;;11.70;99.90;;;;;;5014135;28;19909;-77
2021/12/13 04:39:43;;;;;;;;;;;11.80;99.90;;;;;;5013922;28;20012;-77
2021/12/13 04:42:12;;;;;;;;;;;11.70;99.90;;;;;;5014051;28;19925;-76
2021/12/13 04:44:50;;;;;;;;;;;11.80;99.90;;;;;;5014387;28;19898;-78
2021/12/13 04:47:38;;;;;;;;;;;11.80;99.90;;;;;;5014300;28;19935;-78
2021/12/13 04:50:10;;;;;;;;;;;11.80;99.90;;;;;;5021679;28;20008;-77
2021/12/13 04:52:36;;;;;;;;;;;11.80;99.90;;;;;;5013818;28;19983;-78
2021/12/13 04:55:04;;;;;;;;;;;11.80;99.90;;;;;;5012711;28;19913;-78
2021/12/13 04:57:30;;;;;;;;;;;11.80;99.90;;;;;;5013490;28;19913;-77
2021/12/13 04:59:58;;;;;;;;;;;11.80;99.90;;;;;;5012530;28;19936;-78
2021/12/13 05:02:24;;;;;;;;;;;11.80;99.90;;;;;;5013590;28;19921;-76
2021/12/13 05:04:52;;;;;;;;;;;11.80;99.90;;;;;;5013499;28;19923;-76
2021/12/13 05:07:17;;;;;;;;;;;11.80;99.90;;;;;;5013899;28;19910;-76
2021/12/13 05:09:45;;;;;;;;;;;11.80;99.90;;;;;;5013350;28;19924;-76
2021/12/13 05:12:15;;;;;;;;;;;11.90;99.90;;;;;;5013984;28;19905;-76
2021/12/13 05:14:41;;;;;;;;;;;11.90;99.90;;;;;;5012600;28;19901;-78
2021/12/13 05:17:12;;;;;;;;;;;11.90;99.90;;;;;;5013663;28;19913;-77
2021/12/13 05:19:39;;;;;;;;;;;11.90;99.90;;;;;;5013608;28;19920;-77
2021/12/13 05:22:06;;;;;;;;;;;11.90;99.90;;;;;;5013259;28;19913;-77
2021/12/13 05:24:33;;;;;;;;;;;11.90;99.90;;;;;;5013414;28;19910;-77
2021/12/13 05:27:07;;;;;;;;;;;11.80;99.90;;;;;;5013521;28;19905;-78
2021/12/13 05:29:35;;;;;;;;;;;11.80;99.90;;;;;;5013526;28;19909;-77
2021/12/13 05:32:10;;;;;;;;;;;11.80;99.90;;;;;;5012910;28;20410;-76
2021/12/13 05:34:39;;;;;;;;;;;11.80;99.90;;;;;;5013327;28;19913;-76
2021/12/13 05:37:06;;;;;;;;;;;11.80;99.90;;;;;;5013075;28;19924;-75
2021/12/13 05:39:33;;;;;;;;;;;11.80;99.90;;;;;;5012879;28;20206;-76
2021/12/13 05:42:17;;;;;;;;;;;11.80;99.90;;;;;;5012165;28;20349;-75
2021/12/13 05:44:44;;;;;;;;;;;11.80;99.90;;;;;;5012913;28;20255;-76
2021/12/13 05:47:18;;;;;;;;;;;11.80;99.90;;;;;;5011800;28;20262;-76
2021/12/13 05:49:44;;;;;;;;;;;11.80;99.90;;;;;;5012710;28;20000;-77
2021/12/13 05:52:12;;;;;;;;;;;11.90;99.90;;;;;;5013046;28;19917;-76
2021/12/13 05:54:41;;;;;;;;;;;11.90;99.90;;;;;;5012679;28;19909;-76
2021/12/13 05:57:12;;;;;;;;;;;11.90;99.90;;;;;;5011601;28;19999;-76
2021/12/13 05:59:40;;;;;;;;;;;11.90;99.90;;;;;;5012840;28;19907;-77
2021/12/13 06:02:13;;;;;;;;;;;11.90;99.90;;;;;;5011953;28;19929;-75
2021/12/13 06:04:54;;;;;;;;;;;11.90;99.90;;;;;;5012471;28;19916;-77
2021/12/13 06:07:27;;;;;;;;;;;11.90;99.90;;;;;;5011501;28;20358;-77
2021/12/13 06:10:06;;;;;;;;;;;11.90;99.90;;;;;;5012587;28;19933;-78
2021/12/13 06:12:49;;;;;;;;;;;11.90;99.90;;;;;;5011498;28;19920;-77
2021/12/13 06:15:17;;;;;;;;;;;11.90;99.90;;;;;;5011381;28;20021;-78
2021/12/13 06:17:44;;;;;;;;;;;12.00;99.90;;;;;;5011671;28;19897;-77
2021/12/13 06:20:11;;;;;;;;;;;12.00;99.90;;;;;;5002433;28;19926;-77
2021/12/13 06:22:37;;;;;;;;;;;12.00;99.90;;;;;;4973611;28;19997;-76
2021/12/13 06:25:06;;;;;;;;;;;12.10;99.90;;;;;;4973305;28;20017;-77
2021/12/13 06:27:51;;;;;;;;;;;12.10;99.90;;;;;;4973426;28;19917;-74
2021/12/13 06:30:17;;;;;;;;;;;12.10;99.90;;;;;;4971969;28;19917;-75
2021/12/13 06:32:57;;;;;;;;;;;12.10;99.90;;;;;;4973679;28;19906;-74
2021/12/13 06:35:29;;;;;;;;;;;12.20;99.90;;;;;;4973002;28;19973;-74
2021/12/13 06:37:55;;;;;;;;;;;12.10;99.90;;;;;;4973022;28;20005;-75
2021/12/13 06:40:27;;;;;;;;;;;12.10;99.90;;;;;;4973035;28;19985;-73
2021/12/13 06:43:02;;;;;;;;;;;12.20;99.90;;;;;;4972899;28;19910;-75
2021/12/13 06:45:30;;;;;;;;;;;12.20;99.90;;;;;;4973344;28;20267;-77
2021/12/13 06:47:57;;;;;;;;;;;12.20;99.90;;;;;;4973265;28;20292;-76
2021/12/13 06:50:27;;;;;;;;;;;12.20;99.90;;;;;;4987867;28;19914;-77
2021/12/13 06:53:08;;;;;;;;;;;12.20;99.90;;;;;;4972564;28;19910;-76
2021/12/13 06:55:33;;;;;;;;;;;12.10;99.90;;;;;;4972840;28;19934;-76
2021/12/13 06:58:00;;;;;;;;;;;12.20;99.90;;;;;;4987813;28;19910;-75
2021/12/13 07:00:32;;;;;;;;;;;12.20;99.90;;;;;;4972870;28;19922;-77
2021/12/13 07:02:59;;;;;;;;;;;12.10;99.90;;;;;;4988142;28;20583;-77
2021/12/13 07:05:27;;;;;;;;;;;12.20;99.90;;;;;;4987586;28;19973;-78
2021/12/13 07:07:59;;;;;;;;;;;12.20;99.90;;;;;;4972590;28;19992;-76
2021/12/13 07:10:27;;;;;;;;;;;12.20;99.90;;;;;;4972534;28;19957;-80
2021/12/13 07:12:55;;;;;;;;;;;12.10;99.90;;;;;;4972539;28;19910;-79
2021/12/13 07:15:40;;;;;;;;;;;12.20;99.90;;;;;;4987673;28;19914;-78
2021/12/13 07:18:06;;;;;;;;;;;12.00;99.90;;;;;;4971618;28;19906;-79
2021/12/13 07:20:46;;;;;;;;;;;12.10;99.90;;;;;;4972943;28;20017;-80
2021/12/13 07:23:12;;;;;;;;;;;12.10;99.90;;;;;;4972638;28;19928;-76
2021/12/13 07:25:39;;;;;;;;;;;12.00;99.90;;;;;;4972593;28;19914;-77
2021/12/13 07:28:05;;;;;;;;;;;12.10;99.90;;;;;;4972250;28;20337;-76
2021/12/13 07:30:31;;;;;;;;;;;12.10;99.90;;;;;;4971687;28;19980;-77
2021/12/13 07:32:58;;;;;;;;;;;12.10;99.90;;;;;;4972483;28;20233;-80
2021/12/13 07:35:32;;;;;;;;;;;12.10;99.90;;;;;;4972396;28;20016;-78
2021/12/13 07:38:04;;;;;;;;;;;12.10;99.90;;;;;;4986922;28;19910;-79
2021/12/13 07:40:29;;;;;;;;;;;12.00;99.90;;;;;;4972328;28;19917;-79
2021/12/13 07:43:13;;;;;;;;;;;12.00;99.90;;;;;;4986858;28;19921;-77
2021/12/13 07:45:41;;;;;;;;;;;11.90;99.90;;;;;;4971786;28;19937;-82
2021/12/13 07:48:11;;;;;;;;;;;12.00;99.90;;;;;;4987158;28;20218;-78
2021/12/13 07:50:37;;;;;;;;;;;12.00;99.90;;;;;;4970856;28;19909;-79
2021/12/13 07:53:04;;;;;;;;;;;12.10;99.90;;;;;;4971449;28;19925;-76
2021/12/13 07:55:30;;;;;;;;;;;12.10;99.90;;;;;;4971628;28;19928;-82
2021/12/13 07:57:57;;;;;;;;;;;12.10;99.90;;;;;;4972261;28;19993;-82
2021/12/13 08:00:24;;;;;;;;;;;12.20;99.90;;;;;;4971774;28;19921;-80
2021/12/13 08:02:58;;;;;;;;;;;12.20;99.90;;;;;;4976903;28;19926;-79
2021/12/13 08:05:25;;;;;;;;;;;12.10;99.90;;;;;;4973096;28;20331;-82
2021/12/13 08:07:53;;;;;;;;;;;12.00;99.90;;;;;;4990088;28;19918;-78
2021/12/13 08:10:30;;;;;;;;;;;12.00;99.90;;;;;;4975021;28;19921;-79
2021/12/13 08:13:01;;;;;;;;;;;12.00;99.90;;;;;;4974966;28;19910;-82
2021/12/13 08:15:33;;;;;;;;;;;12.10;99.90;;;;;;4974926;28;19910;-80
2021/12/13 08:18:00;;;;;;;;;;;12.10;99.90;;;;;;4974072;28;19906;-81
2021/12/13 08:20:29;;;;;;;;;;;12.10;99.90;;;;;;4990175;28;19910;-78
2021/12/13 08:22:55;;;;;;;;;;;12.10;99.90;;;;;;4990244;28;19917;-80
2021/12/13 08:25:28;;;;;;;;;;;12.10;99.90;;;;;;4975157;28;19914;-81
2021/12/13 08:28:05;;;;;;;;;;;12.20;99.90;;;;;;4973792;28;20465;-79
2021/12/13 08:30:51;;;;;;;;;;;12.10;99.90;;;;;;4990316;28;19947;-81
2021/12/13 08:33:19;;;;;;;;;;;12.20;99.90;;;;;;4974797;28;19906;-79
2021/12/13 08:35:47;;;;;;;;;;;12.20;99.90;;;;;;4975485;28;19960;-81
2021/12/13 08:38:23;;;;;;;;;;;12.20;99.90;;;;;;4989832;28;19910;-78
2021/12/13 08:40:49;;;;;;;;;;;12.30;99.90;;;;;;4975535;28;19910;-81
2021/12/13 08:43:14;;;;;;;;;;;12.20;99.90;;;;;;4974886;28;19921;-81
2021/12/13 08:45:41;;;;;;;;;;;12.10;99.90;;;;;;4974850;28;19918;-83
2021/12/13 08:48:10;;;;;;;;;;;12.20;99.90;;;;;;4989744;28;19929;-83
2021/12/13 08:50:41;;;;;;;;;;;12.20;99.90;;;;;;4974678;28;19914;-79
2021/12/13 08:53:09;;;;;;;;;;;12.20;99.90;;;;;;4974560;28;20079;-84
2021/12/13 08:55:40;;;;;;;;;;;12.20;99.90;;;;;;4974263;28;19932;-82
2021/12/13 08:58:14;;;;;;;;;;;12.20;99.90;;;;;;4989241;28;20229;-79
2021/12/13 09:00:49;;;;;;;;;;;12.30;99.90;;;;;;4974385;28;19922;-80
2021/12/13 09:03:17;;;;;;;;;;;12.40;99.90;;;;;;4974591;28;19929;-77
2021/12/13 09:05:52;;;;;;;;;;;12.30;99.90;;;;;;4989746;28;19906;-77
2021/12/13 09:08:22;;;;;;;;;;;12.40;99.90;;;;;;4989386;28;20357;-87
2021/12/13 09:10:48;;;;;;;;;;;12.40;99.90;;;;;;4974483;28;19914;-84
2021/12/13 09:13:15;;;;;;;;;;;12.40;99.90;;;;;;4974223;28;19910;-77
2021/12/13 09:15:42;;;;;;;;;;;12.50;99.90;;;;;;4989327;28;19921;-79
2021/12/13 09:18:08;;;;;;;;;;;12.40;99.90;;;;;;4989352;28;19913;-78
2021/12/13 09:20:45;;;;;;;;;;;12.40;99.90;;;;;;4974679;28;19902;-77
2021/12/13 09:23:14;;;;;;;;;;;12.40;99.90;;;;;;4974095;28;19918;-79
2021/12/13 09:25:44;;;;;;;;;;;12.30;99.90;;;;;;4972735;28;20226;-77
2021/12/13 09:28:09;;;;;;;;;;;12.30;99.90;;;;;;4973981;28;20009;-77
2021/12/13 09:30:44;;;;;;;;;;;12.30;99.90;;;;;;4973663;28;19992;-76
2021/12/13 09:33:15;;;;;;;;;;;12.30;99.90;;;;;;4973581;28;19960;-77
2021/12/13 09:35:47;;;;;;;;;;;12.30;99.90;;;;;;4989391;28;19961;-77
2021/12/13 09:38:22;;;;;;;;;;;12.40;99.90;;;;;;4988293;28;19921;-77
2021/12/13 09:40:51;;;;;;;;;;;12.30;99.90;;;;;;4973391;28;19910;-78
2021/12/13 09:43:18;;;;;;;;;;;12.40;99.90;;;;;;4973811;28;19910;-77
2021/12/13 09:45:52;;;;;;;;;;;12.40;99.90;;;;;;4972454;28;19917;-82
2021/12/13 09:48:27;;;;;;;;;;;12.40;99.90;;;;;;4988772;28;19998;-78
2021/12/13 09:50:55;;;;;;;;;;;12.50;99.90;;;;;;4988879;28;19910;-82
2021/12/13 09:53:31;;;;;;;;;;;12.40;99.90;;;;;;4973300;28;19940;-75
2021/12/13 09:55:58;;;;;;;;;;;12.40;99.90;;;;;;4973146;28;19937;-78
2021/12/13 09:58:32;;;;;;;;;;;12.50;99.90;;;;;;4973419;28;19910;-79
2021/12/13 10:00:57;;;;;;;;;;;12.50;99.90;;;;;;4972980;28;19972;-78
2021/12/13 10:03:28;;;;;;;;;;;12.50;99.90;;;;;;4988389;28;19918;-82
2021/12/13 10:05:56;;;;;;;;;;;12.50;99.90;;;;;;4972260;28;19913;-79
2021/12/13 10:08:28;;;;;;;;;;;12.50;99.90;;;;;;4971814;28;20314;-80
2021/12/13 10:11:03;;;;;;;;;;;12.50;99.90;;;;;;4972636;28;19973;-82
2021/12/13 10:13:31;;;;;;;;;;;12.50;99.90;;;;;;4972994;28;19918;-78
2021/12/13 10:15:58;;;;;;;;;;;12.60;99.90;;;;;;4972834;28;19920;-78
2021/12/13 10:18:26;;;;;;;;;;;12.50;99.90;;;;;;4973058;28;19917;-83
2021/12/13 10:21:13;;;;;;;;;;;12.60;99.90;;;;;;4973428;28;19912;-81
2021/12/13 10:23:41;;;;;;;;;;;12.50;99.90;;;;;;4972977;28;19937;-78
2021/12/13 10:26:08;;;;;;;;;;;12.60;99.90;;;;;;4972587;28;19949;-75
2021/12/13 10:28:35;;;;;;;;;;;12.60;99.90;;;;;;4986832;28;19910;-76
2021/12/13 10:31:04;;;;;;;;;;;12.60;99.90;;;;;;4972473;28;20291;-75
2021/12/13 10:33:30;;;;;;;;;;;12.50;99.90;;;;;;4972452;28;19918;-81
2021/12/13 10:35:57;;;;;;;;;;;12.60;99.90;;;;;;4973005;28;19919;-78
2021/12/13 10:38:25;;;;;;;;;;;12.60;99.90;;;;;;4972715;28;19910;-80
2021/12/13 10:40:56;;;;;;;;;;;12.60;99.90;;;;;;4975365;28;19972;-80
2021/12/13 10:43:24;;;;;;;;;;;12.60;99.90;;;;;;4972696;28;19918;-79
2021/12/13 10:45:52;;;;;;;;;;;12.60;99.90;;;;;;4972334;28;20400;-82
2021/12/13 10:48:20;;;;;;;;;;;12.60;99.90;;;;;;4972579;28;19906;-81
2021/12/13 10:50:48;;;;;;;;;;;12.60;99.90;;;;;;4988020;28;20348;-81
2021/12/13 10:53:16;;;;;;;;;;;12.60;99.90;;;;;;4987844;28;19945;-82
2021/12/13 10:55:45;;;;;;;;;;;12.60;99.90;;;;;;4987421;28;19914;-82
2021/12/13 10:58:15;;;;;;;;;;;12.60;99.90;;;;;;4971914;28;20416;-81
2021/12/13 11:00:43;;;;;;;;;;;12.60;99.90;;;;;;4971038;28;20519;-81
2021/12/13 11:03:10;;;;;;;;;;;12.60;99.90;;;;;;4987371;28;19987;-79
2021/12/13 11:05:36;;;;;;;;;;;12.70;99.90;;;;;;4972672;28;20340;-79
2021/12/13 11:08:05;;;;;;;;;;;12.70;99.90;;;;;;4972330;28;20479;-81
2021/12/13 11:10:37;;;;;;;;;;;12.60;99.80;;;;;;4970488;28;20069;-77
2021/12/13 11:13:03;;;;;;;;;;;12.60;99.70;;;;;;4971875;28;20010;-77
2021/12/13 11:15:33;;;;;;;;;;;12.60;99.70;;;;;;4971964;28;20340;-79
2021/12/13 11:17:59;;;;;;;;;;;12.60;99.60;;;;;;4972805;28;19933;-79
2021/12/13 11:20:31;;;;;;;;;;;12.60;99.60;;;;;;4970875;28;19976;-81
2021/12/13 11:22:56;;;;;;;;;;;12.60;99.70;;;;;;4971995;28;20016;-81
2021/12/13 11:25:42;;;;;;;;;;;12.50;99.50;;;;;;4972061;28;20004;-72
2021/12/13 11:28:08;;;;;;;;;;;12.60;99.70;;;;;;4971808;28;19950;-79
2021/12/13 11:30:35;;;;;;;;;;;12.60;99.60;;;;;;4970418;28;19941;-78
2021/12/13 11:33:22;;;;;;;;;;;12.60;99.70;;;;;;4972154;28;19914;-78
2021/12/13 11:36:06;;;;;;;;;;;12.60;99.40;;;;;;4971896;28;19921;-77
2021/12/13 11:38:50;;;;;;;;;;;12.60;99.30;;;;;;4971915;28;19910;-79
2021/12/13 11:41:35;;;;;;;;;;;12.60;99.40;;;;;;4989524;28;19913;-81
2021/12/13 11:44:19;;;;;;;;;;;12.50;99.30;;;;;;4975799;28;19929;-81
2021/12/13 11:46:50;;;;;;;;;;;12.50;99.30;;;;;;4975581;28;19910;-78
2021/12/13 11:49:19;;;;;;;;;;;12.50;99.30;;;;;;4990605;28;20388;-79
2021/12/13 11:51:54;;;;;;;;;;;12.50;99.30;;;;;;4975415;28;19921;-80
2021/12/13 11:54:42;;;;;;;;;;;12.50;99.40;;;;;;4975236;28;19914;-78
2021/12/13 11:57:27;;;;;;;;;;;12.40;99.10;;;;;;4975477;28;19913;-79
2021/12/13 12:00:11;;;;;;;;;;;12.40;99.20;;;;;;4976279;28;19988;-74
2021/12/13 12:02:55;;;;;;;;;;;12.40;99.40;;;;;;4974974;28;19957;-73
2021/12/13 12:05:39;;;;;;;;;;;12.40;99.20;;;;;;4975190;28;20319;-74
2021/12/13 12:08:28;;;;;;;;;;;12.40;99.20;;;;;;4975023;28;19964;-74
2021/12/13 12:10:57;;;;;;;;;;;12.40;99.20;;;;;;4975033;28;19914;-72
2021/12/13 12:13:42;;;;;;;;;;;12.40;99.20;;;;;;4975012;28;20423;-72
2021/12/13 12:16:07;;;;;;;;;;;12.40;99.40;;;;;;4974904;28;20001;-73
2021/12/13 12:18:35;;;;;;;;;;;12.50;99.30;;;;;;4974999;28;19985;-73
2021/12/13 12:21:19;;;;;;;;;;;12.50;99.10;;;;;;4975356;28;19914;-74
2021/12/13 12:23:49;;;;;;;;;;;12.50;99.30;;;;;;4975025;28;19953;-73
2021/12/13 12:26:15;;;;;;;;;;;12.50;99.20;;;;;;4975010;28;19997;-73
2021/12/13 12:28:43;;;;;;;;;;;12.40;99.10;;;;;;4974984;28;19921;-73
2021/12/13 12:31:11;;;;;;;;;;;12.40;99.10;;;;;;4974773;28;19918;-75
2021/12/13 12:33:38;;;;;;;;;;;12.40;99.30;;;;;;4974868;28;20039;-76
2021/12/13 12:36:05;;;;;;;;;;;12.30;99.00;;;;;;4989662;28;19955;-77
2021/12/13 12:38:51;;;;;;;;;;;12.30;99.10;;;;;;4975068;28;19910;-78
2021/12/13 12:41:36;;;;;;;;;;;12.30;99.10;;;;;;4974582;28;19920;-75
2021/12/13 12:44:02;;;;;;;;;;;12.30;99.10;;;;;;4974831;28;20325;-76
2021/12/13 12:46:30;;;;;;;;;;;12.30;99.10;;;;;;4974330;28;19969;-76
2021/12/13 12:48:58;;;;;;;;;;;12.30;99.10;;;;;;4974229;28;19910;-75
2021/12/13 12:51:25;;;;;;;;;;;12.30;99.00;;;;;;4973913;28;20008;-74
2021/12/13 12:53:59;;;;;;;;;;;12.30;98.90;;;;;;4990129;28;19926;-76
2021/12/13 12:56:25;;;;;;;;;;;12.30;98.80;;;;;;4974561;28;19914;-74
2021/12/13 12:59:16;;;;;;;;;;;12.30;98.90;;;;;;4973998;28;19932;-74
2021/12/13 13:01:42;;;;;;;;;;;12.20;98.90;;;;;;4976097;28;20380;-75
2021/12/13 13:04:17;;;;;;;;;;;12.20;99.00;;;;;;4989322;28;20024;-75
2021/12/13 13:06:48;;;;;;;;;;;12.20;99.00;;;;;;4974222;28;19910;-73
2021/12/13 13:09:13;;;;;;;;;;;12.20;99.00;;;;;;4974194;28;19906;-78
2021/12/13 13:11:46;;;;;;;;;;;12.10;99.00;;;;;;4974196;28;19978;-82
2021/12/13 13:14:16;;;;;;;;;;;12.20;98.90;;;;;;4974371;28;19977;-83
2021/12/13 13:16:46;;;;;;;;;;;12.30;98.80;;;;;;4975049;28;19910;-78
2021/12/13 13:19:31;;;;;;;;;;;12.20;98.70;;;;;;4974352;28;19917;-77
2021/12/13 13:21:58;;;;;;;;;;;12.10;98.70;;;;;;4973910;28;19918;-79
2021/12/13 13:24:24;;;;;;;;;;;12.10;98.70;;;;;;4972801;28;19910;-79
2021/12/13 13:26:49;;;;;;;;;;;12.10;98.80;;;;;;4974170;28;20248;-79
2021/12/13 13:29:17;;;;;;;;;;;12.10;98.70;;;;;;4972910;28;19960;-79
2021/12/13 13:31:48;;;;;;;;;;;12.20;98.80;;;;;;4988968;28;19981;-78
2021/12/13 13:34:15;;;;;;;;;;;12.20;98.80;;;;;;4973665;28;20004;-78
2021/12/13 13:36:43;;;;;;;;;;;12.20;98.70;;;;;;4973544;28;20367;-79
2021/12/13 13:39:18;;;;;;;;;;;12.20;98.70;;;;;;4973751;28;20343;-81
2021/12/13 13:41:45;;;;;;;;;;;12.20;98.60;;;;;;4973997;28;19946;-80
2021/12/13 13:44:12;;;;;;;;;;;12.20;98.60;;;;;;4972338;28;19942;-80
2021/12/13 13:46:38;;;;;;;;;;;12.20;98.70;;;;;;4973503;28;19922;-79
2021/12/13 13:49:04;;;;;;;;;;;12.30;98.60;;;;;;4973543;28;19914;-80
2021/12/13 13:51:31;;;;;;;;;;;12.20;98.50;;;;;;4973286;28;19914;-80
2021/12/13 13:53:57;;;;;;;;;;;12.30;98.50;;;;;;4973636;28;19910;-80
2021/12/13 13:56:28;;;;;;;;;;;12.30;98.60;;;;;;4988245;28;20432;-75
2021/12/13 13:58:56;;;;;;;;;;;12.20;98.40;;;;;;4971893;28;19910;-82
2021/12/13 14:01:25;;;;;;;;;;;12.20;98.50;;;;;;4972734;28;19921;-78
2021/12/13 14:03:52;;;;;;;;;;;12.20;98.60;;;;;;4972667;28;19924;-78
2021/12/13 14:06:20;;;;;;;;;;;12.20;98.50;;;;;;4972567;28;19906;-77
2021/12/13 14:08:58;;;;;;;;;;;12.30;98.60;;;;;;4973412;28;19921;-78
2021/12/13 14:11:24;;;;;;;;;;;12.30;98.50;;;;;;4973016;28;19922;-77
2021/12/13 14:13:50;;;;;;;;;;;12.30;98.50;;;;;;4987974;28;19980;-77
2021/12/13 14:16:20;;;;;;;;;;;12.30;98.50;;;;;;4972909;28;19918;-76
2021/12/13 14:18:46;;;;;;;;;;;12.30;98.50;;;;;;4972984;28;19921;-77
2021/12/13 14:21:13;;;;;;;;;;;12.30;98.50;;;;;;4987841;28;19910;-79
2021/12/13 14:23:41;;;;;;;;;;;12.20;98.40;;;;;;4973109;28;20312;-78
2021/12/13 14:26:06;;;;;;;;;;;12.20;98.50;;;;;;4972765;28;19914;-79
2021/12/13 14:28:34;;;;;;;;;;;12.30;98.60;;;;;;4972405;28;20198;-79
2021/12/13 14:31:01;;;;;;;;;;;12.20;98.40;;;;;;4972792;28;19914;-79
2021/12/13 14:33:34;;;;;;;;;;;12.20;98.50;;;;;;4987803;28;19916;-77
2021/12/13 14:36:02;;;;;;;;;;;12.20;98.50;;;;;;4972844;28;20225;-78
2021/12/13 14:38:28;;;;;;;;;;;12.20;98.40;;;;;;4972287;28;20345;-78
2021/12/13 14:40:55;;;;;;;;;;;12.10;98.30;;;;;;4972343;28;19910;-78
2021/12/13 14:43:23;;;;;;;;;;;12.20;98.40;;;;;;4971483;28;19922;-78